Rechercher aéroport 
image banner adimage banner adimage banner ad
image banner ad

0PA0 - Philadelphia Gliderport

Situé à Hilltown, United States

ICAO - 0PA0, IATA -

Données fournies par Airmate  

Information générale

Coordonnées: N40°41'3" W77°7'35"
Élévation : 674 feet MSL.
 
Voir autres Aéroports à Pennsylvania

Données opérationnelles

Special qualification required
Heure actuelle UTC:
Heure actuelle locale:
Météo à : KSEG - Penn Valley ( 27 km )
METAR: KSEG 152053Z AUTO 00000KT 10SM FEW049 SCT060 SCT100 23/14 A2981 RMK AO2 SLP094 T02330144 56006
Voir NOTAMs / SUP AIP / TFR affectant cet aéroport [VIEW]
Fréquences de communication: [VIEW]

Pistes:

Coordonnées de l'aéroport

Adresse: Hilltown United States

Vue satellite de 0PA0